Time;durP1;ratioP1;P1;durP2;ratioP2;P2;SDS_P1;SDS_P2;PMS_P1;PMS_P2;Temp;Humidity;BMP_temperature;BMP_pressure;BME280_temperature;BME280_humidity;BME280_pressure;Samples;Min_cycle;Max_cycle;Signal;HPM_P1;HPM_P2
2022/12/09 00:00:52;;;;;;;15.50;7.20;;;;;;;4.39;100.00;98861.13;12219674;19;20042;-82
2022/12/09 00:04:53;;;;;;;14.93;7.35;;;;;;;4.39;100.00;98856.50;12204357;19;20034;-83
2022/12/09 00:08:56;;;;;;;17.10;7.77;;;;;;;4.38;100.00;98841.19;12183091;19;20014;-84
2022/12/09 00:12:58;;;;;;;17.38;7.32;;;;;;;4.40;100.00;98847.22;12200458;19;20006;-83
2022/12/09 00:17:00;;;;;;;16.27;7.45;;;;;;;4.42;100.00;98853.28;12203017;19;20003;-82
2022/12/09 00:21:22;;;;;;;18.27;8.52;;;;;;;4.42;100.00;98842.38;12187039;19;20010;-82
2022/12/09 00:25:24;;;;;;;14.63;7.60;;;;;;;4.40;100.00;98835.50;12204224;19;20011;-82
2022/12/09 00:29:26;;;;;;;19.52;7.53;;;;;;;4.38;100.00;98835.75;12184818;19;20024;-83
2022/12/09 00:33:32;;;;;;;15.65;7.50;;;;;;;4.39;100.00;98836.56;12202399;19;20062;-83
2022/12/09 00:37:36;;;;;;;16.77;6.82;;;;;;;4.39;100.00;98831.13;12204474;19;20002;-83
2022/12/09 00:41:37;;;;;;;17.00;7.30;;;;;;;4.36;100.00;98832.41;12181769;19;20010;-82
2022/12/09 00:45:39;;;;;;;17.00;7.65;;;;;;;4.33;100.00;98833.69;12202359;19;20007;-82
2022/12/09 00:49:41;;;;;;;15.45;7.25;;;;;;;4.34;100.00;98826.34;12198969;19;20693;-83
2022/12/09 00:53:43;;;;;;;14.77;7.30;;;;;;;4.33;100.00;98827.41;12177869;19;20034;-82
2022/12/09 00:57:45;;;;;;;14.57;6.90;;;;;;;4.35;100.00;98825.31;12199161;19;20027;-82
2022/12/09 01:01:46;;;;;;;16.52;7.25;;;;;;;4.34;100.00;98824.47;12197890;19;20003;-83
2022/12/09 01:05:48;;;;;;;17.42;7.60;;;;;;;4.33;100.00;98821.97;12180717;19;20006;-82
2022/12/09 01:09:50;;;;;;;17.15;7.75;;;;;;;4.30;100.00;98827.88;12202141;19;20014;-83
2022/12/09 01:13:56;;;;;;;20.88;8.43;;;;;;;4.27;100.00;98818.28;12203726;19;20556;-82
2022/12/09 01:17:58;;;;;;;16.38;8.00;;;;;;;4.30;100.00;98825.16;12183269;19;20006;-82
2022/12/09 01:22:00;;;;;;;19.75;8.13;;;;;;;4.30;100.00;98827.88;12200306;19;20078;-82
2022/12/09 01:26:05;;;;;;;15.18;7.60;;;;;;;4.30;100.00;98828.72;12198508;19;20023;-82
2022/12/09 01:30:11;;;;;;;17.00;7.13;;;;;;;4.32;100.00;98831.22;12174611;19;20748;-82
2022/12/09 01:34:13;;;;;;;16.13;6.72;;;;;;;4.32;100.00;98833.94;12192094;19;20007;-82
2022/12/09 01:38:15;;;;;;;12.50;5.43;;;;;;;4.28;100.00;98827.28;12174410;19;20078;-82
2022/12/09 01:42:23;;;;;;;18.40;8.25;;;;;;;4.26;100.00;98832.16;12196176;19;20086;-83
2022/12/09 01:46:25;;;;;;;16.38;7.18;;;;;;;4.24;100.00;98828.81;12199140;19;20460;-83
2022/12/09 01:50:29;;;;;;;21.55;7.15;;;;;;;4.25;100.00;98823.16;12175306;19;20010;-83
2022/12/09 01:54:32;;;;;;;20.10;8.02;;;;;;;4.23;100.00;98816.25;12195579;19;20013;-82
2022/12/09 01:58:37;;;;;;;14.02;7.38;;;;;;;4.22;100.00;98809.13;12195548;19;20086;-82
2022/12/09 02:02:42;;;;;;;19.05;7.70;;;;;;;4.20;100.00;98809.38;12169228;19;20010;-82
2022/12/09 02:06:44;;;;;;;17.55;7.15;;;;;;;4.18;100.00;98807.94;12195099;19;20484;-82
2022/12/09 02:10:54;;;;;;;19.13;7.38;;;;;;;4.16;100.00;98804.59;12195805;19;20003;-82
2022/12/09 02:15:00;;;;;;;14.95;6.65;;;;;;;4.14;100.00;98802.13;12172512;19;20006;-82
2022/12/09 02:19:24;;;;;;;15.07;7.28;;;;;;;4.13;100.00;98802.34;12194474;19;20003;-81
2022/12/09 02:23:44;;;;;;;17.48;7.47;;;;;;;4.10;100.00;98795.47;12171124;19;20694;-81
2022/12/09 02:28:13;;;;;;;19.42;7.68;;;;;;;4.08;100.00;98795.72;12193301;19;19999;-81
2022/12/09 02:32:36;;;;;;;17.35;7.75;;;;;;;4.05;100.00;98787.16;12167235;19;20484;-82
2022/12/09 02:37:09;;;;;;;20.05;7.80;;;;;;;4.04;100.00;98783.59;12196326;19;20078;-82
2022/12/09 02:41:22;;;;;;;19.48;7.88;;;;;;;4.03;100.00;98784.66;12180718;19;20101;-82
2022/12/09 02:45:28;;;;;;;18.20;8.23;;;;;;;4.01;100.00;98778.59;12201962;19;20023;-81
2022/12/09 02:49:32;;;;;;;15.05;6.50;;;;;;;4.01;100.00;98780.50;12204205;19;20006;-81
2022/12/09 02:53:36;;;;;;;17.92;7.95;;;;;;;3.98;100.00;98767.34;12180229;19;20010;-81
2022/12/09 02:57:39;;;;;;;16.30;7.00;;;;;;;3.95;100.00;98765.09;12201464;19;20014;-82
2022/12/09 03:01:55;;;;;;;18.05;7.78;;;;;;;3.89;100.00;98759.47;12197137;19;20503;-82
2022/12/09 03:06:18;;;;;;;18.60;8.30;;;;;;;3.88;100.00;98748.84;12181082;19;20466;-82
2022/12/09 03:10:30;;;;;;;15.73;7.03;;;;;;;3.85;100.00;98743.84;12200237;19;20007;-82
2022/12/09 03:14:42;;;;;;;17.95;7.68;;;;;;;3.83;100.00;98735.06;12181224;19;20019;-81
2022/12/09 03:18:50;;;;;;;18.60;8.57;;;;;;;3.79;100.00;98736.59;12198230;19;20011;-81
2022/12/09 03:22:58;;;;;;;17.70;8.50;;;;;;;3.73;100.00;98732.09;12198810;19;20003;-82
2022/12/09 03:27:07;;;;;;;17.63;7.30;;;;;;;3.70;100.00;98735.28;12183237;19;20007;-82
2022/12/09 03:31:15;;;;;;;19.50;8.52;;;;;;;3.67;100.00;98727.56;12211064;19;20007;-81
2022/12/09 03:35:22;;;;;;;18.42;7.97;;;;;;;3.61;100.00;98721.16;12175693;19;20022;-83
2022/12/09 03:39:27;;;;;;;18.33;7.80;;;;;;;3.57;100.00;98722.66;12204490;19;20006;-82
2022/12/09 03:43:36;;;;;;;22.13;8.18;;;;;;;3.57;100.00;98731.69;12206788;19;20054;-81
2022/12/09 03:47:39;;;;;;;20.08;7.63;;;;;;;3.54;100.00;98721.25;12184109;19;20072;-82
2022/12/09 03:52:10;;;;;;;21.40;8.30;;;;;;;3.55;100.00;98727.53;12197685;19;20003;-82
2022/12/09 03:56:22;;;;;;;16.83;7.28;;;;;;;3.53;100.00;98719.56;12180399;19;20014;-81
2022/12/09 04:00:24;;;;;;;19.42;7.70;;;;;;;3.51;100.00;98715.41;12201212;19;20010;-82
2022/12/09 04:04:27;;;;;;;14.57;7.35;;;;;;;3.50;100.00;98709.13;12202153;19;20009;-82
2022/12/09 04:08:30;;;;;;;16.88;8.07;;;;;;;3.48;100.00;98716.72;12223934;19;20606;-82
2022/12/09 04:12:31;;;;;;;23.30;9.30;;;;;;;3.45;100.00;98711.75;12239228;19;20006;-81
2022/12/09 04:16:33;;;;;;;19.17;8.77;;;;;;;3.37;100.00;98710.16;12204900;19;20010;-81
2022/12/09 04:20:35;;;;;;;19.63;8.70;;;;;;;3.32;100.00;98718.16;12182307;19;20574;-81
2022/12/09 04:24:37;;;;;;;20.70;8.93;;;;;;;3.23;100.00;98705.94;12199984;19;20074;-81
2022/12/09 04:28:39;;;;;;;19.73;9.15;;;;;;;3.14;100.00;98716.31;12202244;19;20006;-82
2022/12/09 04:32:40;;;;;;;18.08;8.13;;;;;;;3.05;100.00;98714.13;12172780;19;20013;-82
2022/12/09 04:36:42;;;;;;;15.30;6.47;;;;;;;2.95;100.00;98710.06;12205606;19;20006;-83
2022/12/09 04:40:44;;;;;;;18.80;8.35;;;;;;;2.81;100.00;98710.44;12205497;19;20007;-83
2022/12/09 04:44:46;;;;;;;24.75;9.02;;;;;;;2.70;100.00;98712.84;12181579;19;20010;-82
2022/12/09 04:48:48;;;;;;;20.63;8.90;;;;;;;2.61;100.00;98711.47;12201923;19;20063;-82
2022/12/09 04:52:49;;;;;;;20.65;8.63;;;;;;;2.49;100.00;98699.66;12198981;19;20007;-82
2022/12/09 04:56:51;;;;;;;24.02;10.18;;;;;;;2.38;100.00;98703.13;12176958;19;19999;-82
2022/12/09 05:00:53;;;;;;;20.75;8.30;;;;;;;2.24;100.00;98703.25;12213565;19;20006;-82
2022/12/09 05:04:55;;;;;;;19.40;9.23;;;;;;;2.14;100.00;98700.22;12219625;19;20512;-82
2022/12/09 05:08:57;;;;;;;23.80;8.98;;;;;;;2.01;100.00;98703.03;12198184;19;20107;-82
2022/12/09 05:12:59;;;;;;;21.75;7.32;;;;;;;1.92;100.00;98707.91;12221527;19;20042;-83
2022/12/09 05:17:02;;;;;;;21.80;8.20;;;;;;;1.86;100.00;98697.13;12258024;19;19999;-81
2022/12/09 05:21:06;;;;;;;16.52;7.60;;;;;;;1.76;100.00;98693.00;12217594;19;20477;-82
2022/12/09 05:25:09;;;;;;;18.10;8.38;;;;;;;1.70;100.00;98690.34;12204680;19;20006;-82
2022/12/09 05:29:11;;;;;;;18.52;7.97;;;;;;;1.62;100.00;98690.59;12179050;19;20501;-82
2022/12/09 05:33:19;;;;;;;19.95;8.13;;;;;;;1.57;100.00;98689.34;12195334;19;20007;-82
2022/12/09 05:37:21;;;;;;;23.83;8.27;;;;;;;1.52;100.00;98685.66;12199093;19;21399;-82
2022/12/09 05:41:24;;;;;;;18.75;7.53;;;;;;;1.45;100.00;98674.00;12170744;19;20084;-83
2022/12/09 05:45:26;;;;;;;18.27;7.88;;;;;;;1.38;100.00;98674.03;12195998;19;20010;-81
2022/12/09 05:49:28;;;;;;;18.77;7.97;;;;;;;1.34;100.00;98667.41;12192589;19;20458;-81
2022/12/09 05:53:31;;;;;;;21.92;9.30;;;;;;;1.27;100.00;98656.56;12169136;19;20015;-83
2022/12/09 05:57:34;;;;;;;22.55;8.52;;;;;;;1.20;100.00;98644.94;12195426;19;20003;-82
2022/12/09 06:01:36;;;;;;;;;;;;;;;1.09;100.00;98651.88;12194292;19;20003;-83
2022/12/09 06:05:38;;;;;;;22.42;9.10;;;;;;;1.00;100.00;98653.16;12173640;19;19927;-83
2022/12/09 06:09:43;;;;;;;17.90;8.57;;;;;;;0.91;100.00;98658.00;12194489;19;20018;-82
2022/12/09 06:13:46;;;;;;;23.88;9.18;;;;;;;0.85;100.00;98658.88;12204762;19;20011;-82
2022/12/09 06:17:48;;;;;;;;;;;;;;;0.83;100.00;98652.84;12187477;19;20018;-82
2022/12/09 06:21:50;;;;;;;19.08;7.95;;;;;;;0.82;100.00;98650.34;12203771;19;19906;-83
2022/12/09 06:25:52;;;;;;;23.05;9.18;;;;;;;0.81;100.00;98656.81;12208078;19;20027;-82
2022/12/09 06:29:54;;;;;;;26.90;9.87;;;;;;;0.79;100.00;98648.06;12185005;19;20042;-83
2022/12/09 06:33:56;;;;;;;22.33;9.23;;;;;;;0.80;100.00;98647.00;12203376;19;20251;-83
2022/12/09 06:38:00;;;;;;;20.27;8.65;;;;;;;0.79;100.00;98648.88;12209268;19;20031;-82
2022/12/09 06:42:03;;;;;;;23.27;9.13;;;;;;;0.80;100.00;98639.69;12184781;19;20014;-83
2022/12/09 06:46:18;;;;;;;;;;;;;;;0.78;100.00;98644.53;12211959;19;20014;-83
2022/12/09 06:50:20;;;;;;;20.75;8.27;;;;;;;0.77;100.00;98650.16;12182608;19;20017;-81
2022/12/09 06:54:22;;;;;;;22.63;8.67;;;;;;;0.77;100.00;98648.25;12204200;19;20035;-82
2022/12/09 06:58:24;;;;;;;24.70;8.73;;;;;;;0.80;100.00;98645.13;12206153;19;20056;-82
2022/12/09 07:02:26;;;;;;;23.48;8.48;;;;;;;0.87;100.00;98647.81;12186052;19;20027;-82
2022/12/09 07:06:38;;;;;;;25.20;8.88;;;;;;;0.97;100.00;98645.47;12197109;19;20744;-82
2022/12/09 07:10:44;;;;;;;23.00;9.20;;;;;;;1.09;100.00;98642.91;12195007;19;20014;-82
2022/12/09 07:14:52;;;;;;;26.92;9.27;;;;;;;1.21;100.00;98638.44;12178384;19;20006;-82
2022/12/09 07:18:54;;;;;;;20.83;8.82;;;;;;;1.27;100.00;98640.28;12194026;19;20019;-82
2022/12/09 07:22:56;;;;;;;24.67;9.30;;;;;;;1.31;100.00;98641.53;12205804;19;20476;-82
2022/12/09 07:26:59;;;;;;;24.93;9.90;;;;;;;1.31;100.00;98641.53;12178307;19;20011;-82
2022/12/09 07:31:25;;;;;;;24.17;9.95;;;;;;;1.32;100.00;98647.78;12210215;19;20022;-82
2022/12/09 07:35:28;;;;;;;21.70;7.97;;;;;;;1.28;100.00;98646.53;12186664;19;20026;-82
2022/12/09 07:39:30;;;;;;;23.95;9.70;;;;;;;1.27;100.00;98656.56;12206953;19;20039;-82
2022/12/09 07:43:33;;;;;;;15.90;7.23;;;;;;;1.21;100.00;98651.19;12202743;19;20074;-82
2022/12/09 07:47:35;;;;;;;22.13;9.20;;;;;;;1.19;100.00;98648.69;12182891;19;20015;-82
2022/12/09 07:51:40;;;;;;;25.55;9.38;;;;;;;1.17;100.00;98649.97;12202358;19;20031;-82
2022/12/09 07:55:42;;;;;;;22.83;10.70;;;;;;;1.16;100.00;98649.13;12205058;19;20003;-82
2022/12/09 07:59:44;;;;;;;29.23;11.37;;;;;;;1.17;100.00;98656.22;12182296;19;20026;-82
2022/12/09 08:03:47;;;;;;;27.33;11.67;;;;;;;1.21;100.00;98649.28;12204955;19;20062;-82
2022/12/09 08:07:49;;;;;;;28.50;11.88;;;;;;;1.23;100.00;98640.94;12208277;19;20007;-82
2022/12/09 08:11:52;;;;;;;31.45;12.85;;;;;;;1.24;100.00;98650.75;12185237;19;20002;-82
2022/12/09 08:15:54;;;;;;;30.35;11.45;;;;;;;1.26;100.00;98657.63;12205247;19;20424;-82
2022/12/09 08:19:56;;;;;;;26.73;11.05;;;;;;;1.29;100.00;98651.75;12200889;19;20043;-82
2022/12/09 08:24:02;;;;;;;25.00;10.05;;;;;;;1.33;100.00;98652.97;12202397;19;20063;-82
2022/12/09 08:28:04;;;;;;;31.73;13.20;;;;;;;1.38;100.00;98654.22;12195457;19;20006;-82
2022/12/09 08:32:06;;;;;;;22.02;10.63;;;;;;;1.40;100.00;98649.38;12193378;19;20019;-82
2022/12/09 08:36:12;;;;;;;20.23;8.63;;;;;;;1.45;100.00;98644.97;12202420;19;20015;-82
2022/12/09 08:40:14;;;;;;;28.20;12.43;;;;;;;1.51;100.00;98649.50;12203138;19;20296;-83
2022/12/09 08:44:18;;;;;;;33.53;12.20;;;;;;;1.62;100.00;98636.28;12179236;19;19998;-83
2022/12/09 08:48:20;;;;;;;29.10;11.63;;;;;;;1.68;100.00;98635.41;12199497;19;20422;-82
2022/12/09 08:52:22;;;;;;;30.33;12.23;;;;;;;1.74;100.00;98632.63;12197245;19;20002;-82
2022/12/09 08:56:26;;;;;;;27.08;11.68;;;;;;;1.81;100.00;98632.56;12196444;19;20015;-82
2022/12/09 09:00:28;;;;;;;24.02;10.40;;;;;;;1.87;100.00;98626.25;12252798;19;20036;-82
2022/12/09 09:04:30;;;;;;;24.13;10.43;;;;;;;1.90;100.00;98623.09;12225279;19;20010;-82
2022/12/09 09:08:37;;;;;;;24.80;10.48;;;;;;;1.89;100.00;98624.16;12186354;19;20006;-83
2022/12/09 09:12:39;;;;;;;26.90;11.60;;;;;;;1.89;100.00;98626.03;12207859;19;20013;-82
2022/12/09 09:16:44;;;;;;;24.67;11.15;;;;;;;1.97;100.00;98625.75;12207200;19;20007;-82
2022/12/09 09:20:47;;;;;;;23.88;11.02;;;;;;;1.97;100.00;98625.75;12182640;19;20078;-81
2022/12/09 09:24:51;;;;;;;25.23;11.10;;;;;;;1.98;100.00;98630.13;12203949;19;20003;-82
2022/12/09 09:28:54;;;;;;;29.45;12.55;;;;;;;2.00;100.00;98630.75;12199531;19;20006;-82
2022/12/09 09:32:56;;;;;;;36.13;15.82;;;;;;;2.08;100.00;98627.72;12178223;19;20010;-83
2022/12/09 09:36:58;;;;;;;25.33;12.13;;;;;;;2.14;100.00;98624.13;12199475;19;20003;-82
2022/12/09 09:41:05;;;;;;;25.08;11.15;;;;;;;2.25;100.00;98623.38;12200505;19;20003;-83
2022/12/09 09:45:14;;;;;;;27.50;12.25;;;;;;;2.34;100.00;98618.47;12179564;19;20017;-82
2022/12/09 09:49:33;;;;;;;24.77;13.15;;;;;;;2.44;100.00;98612.50;12213073;19;20082;-82
2022/12/09 09:53:35;;;;;;;24.73;12.18;;;;;;;2.57;100.00;98611.53;12184759;19;20006;-82
2022/12/09 09:57:45;;;;;;;27.70;11.05;;;;;;;2.67;100.00;98609.94;12210846;19;20026;-82
2022/12/09 10:01:59;;;;;;;26.38;11.68;;;;;;;2.76;100.00;98601.47;12208596;19;20010;-82
2022/12/09 10:06:11;;;;;;;24.45;10.85;;;;;;;2.91;100.00;98601.88;12187794;19;20010;-82
2022/12/09 10:10:39;;;;;;;27.30;11.32;;;;;;;3.07;100.00;98600.44;12211747;19;20119;-82
2022/12/09 10:14:47;;;;;;;24.33;10.95;;;;;;;3.21;100.00;98582.81;12185093;19;20018;-82
2022/12/09 10:19:17;;;;;;;25.73;11.27;;;;;;;3.37;100.00;98600.41;12211514;19;19999;-82
2022/12/09 10:23:20;;;;;;;23.98;11.10;;;;;;;3.48;100.00;98593.31;12182990;19;20011;-81
2022/12/09 10:27:45;;;;;;;25.48;11.15;;;;;;;3.57;100.00;98591.91;12207442;19;20035;-81
2022/12/09 10:31:47;;;;;;;27.60;12.23;;;;;;;3.65;100.00;98592.38;12203086;19;20034;-82
2022/12/09 10:35:50;;;;;;;26.85;11.50;;;;;;;3.71;100.00;98589.78;12187018;19;20031;-82
2022/12/09 10:40:14;;;;;;;25.92;11.35;;;;;;;3.83;100.00;98596.09;12210127;19;20027;-83
2022/12/09 10:44:20;;;;;;;25.50;11.95;;;;;;;3.91;100.00;98593.03;12184991;19;20035;-83
2022/12/09 10:48:51;;;;;;;31.17;11.93;;;;;;;4.02;100.00;98589.47;12211581;19;20074;-82
2022/12/09 10:52:54;;;;;;;24.60;11.70;;;;;;;4.17;100.00;98589.00;12210703;19;20006;-82
2022/12/09 10:57:21;;;;;;;22.95;10.73;;;;;;;4.36;100.00;98580.66;12187984;19;21208;-82
2022/12/09 11:01:23;;;;;;;21.35;10.52;;;;;;;4.49;100.00;98586.69;12213180;19;19999;-82
2022/12/09 11:05:28;;;;;;;22.37;10.87;;;;;;;4.74;100.00;98566.47;12244474;19;20278;-83
2022/12/09 11:09:34;;;;;;;21.60;9.95;;;;;;;5.08;100.00;98567.38;12255218;19;20006;-82
2022/12/09 11:13:41;;;;;;;20.40;9.25;;;;;;;5.33;100.00;98561.56;12214653;19;20022;-82
2022/12/09 11:17:55;;;;;;;20.30;9.25;;;;;;;5.55;100.00;98564.38;12186929;19;20011;-82
2022/12/09 11:22:21;;;;;;;17.92;8.90;;;;;;;5.72;100.00;98556.19;12208264;19;20527;-82
2022/12/09 11:26:30;;;;;;;20.55;9.00;;;;;;;5.92;100.00;98558.44;12190064;19;20007;-82
2022/12/09 11:30:39;;;;;;;20.92;9.68;;;;;;;6.04;99.02;98558.34;12208544;19;20006;-82
2022/12/09 11:35:03;;;;;;;20.90;10.23;;;;;;;6.09;97.19;98552.94;12208961;19;20464;-83
2022/12/09 11:39:20;;;;;;;15.15;8.25;;;;;;;6.09;96.31;98550.22;12186869;19;20022;-81
2022/12/09 11:43:30;;;;;;;17.15;9.23;;;;;;;6.24;96.82;98539.47;12210124;19;20007;-82
2022/12/09 11:47:36;;;;;;;16.60;9.10;;;;;;;6.35;95.16;98541.28;12190378;19;20028;-82
2022/12/09 11:52:03;;;;;;;18.88;8.38;;;;;;;6.37;94.28;98530.09;12208967;19;20010;-82
2022/12/09 11:56:14;;;;;;;19.10;9.60;;;;;;;6.28;94.38;98526.97;12213690;19;20789;-82
2022/12/09 12:00:41;;;;;;;19.88;9.93;;;;;;;6.10;93.48;98528.09;12188426;19;20078;-82
2022/12/09 12:05:02;;;;;;;18.35;10.40;;;;;;;5.94;91.83;98527.03;12209249;19;20768;-83
2022/12/09 12:09:51;;;;;;;24.20;11.68;;;;;;;5.68;91.99;98533.16;12189566;19;20083;-83
2022/12/09 12:14:02;;;;;;;19.58;9.68;;;;;;;5.36;92.16;98533.75;12212524;19;20003;-83
2022/12/09 12:18:09;;;;;;;17.45;9.88;;;;;;;5.24;93.55;98527.53;12190338;19;20639;-82
2022/12/09 12:22:32;;;;;;;17.33;9.77;;;;;;;5.07;93.00;98527.50;12210775;19;20010;-84
2022/12/09 12:26:56;;;;;;;25.08;11.57;;;;;;;4.89;93.25;98535.91;12200767;19;20009;-82
2022/12/09 12:31:00;;;;;;;25.75;10.30;;;;;;;4.75;93.12;98540.81;12238780;19;20374;-83
2022/12/09 12:35:14;;;;;;;19.88;8.90;;;;;;;4.73;93.78;98527.44;12204833;19;20007;-82
2022/12/09 12:39:37;;;;;;;19.05;8.68;;;;;;;4.82;93.59;98524.28;12189490;19;20018;-82
2022/12/09 12:48:34;;;;;;;20.35;8.60;;;;;;;5.06;93.49;98516.81;12187603;19;19906;-82
2022/12/09 12:52:59;;;;;;;15.15;8.50;;;;;;;5.05;92.27;98515.16;12202494;19;20093;-83
2022/12/09 12:57:29;;;;;;;17.48;8.90;;;;;;;4.98;92.07;98518.88;12186430;19;20019;-83
2022/12/09 13:01:49;;;;;;;17.95;9.13;;;;;;;5.08;92.73;98511.94;12204148;19;20024;-83
2022/12/09 13:05:55;;;;;;;16.40;8.60;;;;;;;5.18;92.56;98518.44;12184898;19;20010;-83
2022/12/09 13:09:56;;;;;;;19.40;8.48;;;;;;;5.29;92.13;98518.59;12209333;19;20006;-83
2022/12/09 13:14:05;;;;;;;16.92;8.85;;;;;;;5.34;91.60;98516.78;12206480;19;20009;-82
2022/12/09 13:18:18;;;;;;;21.95;9.30;;;;;;;5.38;91.45;98511.63;12187072;19;20047;-83
2022/12/09 13:22:42;;;;;;;17.02;8.00;;;;;;;5.43;91.22;98512.56;12202294;19;20010;-83
2022/12/09 13:27:07;;;;;;;15.70;8.80;;;;;;;5.43;90.82;98507.09;12185836;19;20011;-83
2022/12/09 13:31:09;;;;;;;14.75;7.38;;;;;;;5.51;90.53;98503.13;12205842;19;19998;-83
2022/12/09 13:35:22;;;;;;;15.63;8.07;;;;;;;5.46;89.87;98503.03;12209272;19;20027;-83
2022/12/09 13:39:39;;;;;;;15.48;8.23;;;;;;;5.44;90.04;98499.72;12214782;19;20030;-84
2022/12/09 13:43:41;;;;;;;16.17;8.77;;;;;;;5.32;90.00;98502.53;12234050;19;20014;-83
2022/12/09 13:47:42;;;;;;;17.85;8.68;;;;;;;5.19;88.75;98497.41;12205363;19;20023;-83
2022/12/09 13:51:50;;;;;;;16.95;8.10;;;;;;;5.12;90.59;98497.56;12257101;19;20014;-84
2022/12/09 13:55:56;;;;;;;19.15;9.43;;;;;;;4.99;89.91;98504.16;12222729;19;20365;-84
2022/12/09 14:00:17;;;;;;;17.27;8.45;;;;;;;4.86;91.47;98504.47;12184785;19;20018;-83
2022/12/09 14:04:24;;;;;;;16.70;8.00;;;;;;;4.83;92.15;98495.94;12207577;19;20015;-84
2022/12/09 14:08:32;;;;;;;17.98;8.48;;;;;;;4.73;91.98;98489.22;12209286;19;20007;-84
2022/12/09 14:12:35;;;;;;;17.13;8.32;;;;;;;4.56;92.17;98493.81;12187557;19;20398;-84
2022/12/09 14:16:49;;;;;;;20.23;9.32;;;;;;;4.34;92.88;98499.94;12209150;19;20002;-84
2022/12/09 14:21:16;;;;;;;18.48;8.02;;;;;;;4.30;93.63;98506.91;12184292;19;20013;-83
2022/12/09 14:25:28;;;;;;;16.58;8.68;;;;;;;4.25;93.82;98511.44;12209417;19;20695;-83
2022/12/09 14:29:44;;;;;;;16.35;8.02;;;;;;;4.28;94.05;98508.22;12179586;19;20035;-83
2022/12/09 14:33:46;;;;;;;17.85;7.82;;;;;;;4.30;94.46;98515.09;12209527;19;20389;-83
2022/12/09 14:38:08;;;;;;;18.83;8.48;;;;;;;4.21;94.11;98511.09;12212512;19;20078;-84
2022/12/09 14:42:22;;;;;;;17.30;8.23;;;;;;;4.20;95.29;98514.91;12184275;19;20009;-82
2022/12/09 14:46:29;;;;;;;18.33;8.00;;;;;;;4.05;94.81;98520.03;12218303;19;20007;-85
2022/12/09 14:50:36;;;;;;;18.13;8.48;;;;;;;3.98;95.83;98530.19;12192943;19;20379;-83
2022/12/09 14:54:44;;;;;;;16.88;8.27;;;;;;;3.94;96.04;98532.59;12209886;19;20030;-84
2022/12/09 14:58:53;;;;;;;18.40;8.80;;;;;;;3.83;96.28;98534.22;12212992;19;20082;-84
2022/12/09 15:02:56;;;;;;;19.55;9.20;;;;;;;3.85;96.42;98539.47;12191223;19;20006;-83
2022/12/09 15:07:19;;;;;;;25.52;10.60;;;;;;;3.88;96.65;98533.53;12216958;19;19998;-84
2022/12/09 15:11:34;;;;;;;25.10;12.05;;;;;;;3.91;96.66;98530.34;12214460;19;20007;-83
2022/12/09 15:15:38;;;;;;;22.00;9.88;;;;;;;3.94;96.58;98534.47;12194719;19;20089;-83
2022/12/09 15:19:40;;;;;;;24.75;11.50;;;;;;;3.95;96.65;98536.97;12215510;19;20111;-83
2022/12/09 15:24:02;;;;;;;23.67;10.32;;;;;;;3.93;96.54;98533.66;12193796;19;20014;-83
2022/12/09 15:28:13;;;;;;;22.77;9.70;;;;;;;3.89;96.61;98535.19;12215448;19;20032;-83
2022/12/09 15:32:19;;;;;;;30.65;11.77;;;;;;;3.82;97.17;98542.66;12211505;19;20436;-83
2022/12/09 15:36:38;;;;;;;30.92;14.48;;;;;;;3.81;97.40;98544.56;12192521;19;20023;-83
2022/12/09 15:42:05;;;;;;;33.28;16.77;;;;;;;3.86;97.46;98544.66;12209155;19;20031;-83
2022/12/09 15:45:11;;;;;;;35.03;15.93;;;;;;;3.88;97.29;98548.00;12192534;19;20031;-83
2022/12/09 15:49:19;;;;;;;58.25;23.92;;;;;;;3.88;97.60;98548.00;12210828;19;20088;-83
2022/12/09 15:53:37;;;;;;;33.00;14.60;;;;;;;3.88;97.57;98556.16;12214416;19;20010;-84
2022/12/09 15:57:41;;;;;;;172.38;61.30;;;;;;;3.81;97.58;98558.19;12194934;19;20010;-84
2022/12/09 16:01:49;;;;;;;125.75;54.95;;;;;;;3.75;97.40;98558.28;12214016;19;20006;-82
2022/12/09 16:05:55;;;;;;;30.20;16.38;;;;;;;3.65;97.72;98554.25;12194529;19;20123;-83
2022/12/09 16:10:10;;;;;;;29.27;14.80;;;;;;;3.65;97.83;98553.44;12214729;19;21172;-82
2022/12/09 16:14:14;;;;;;;22.65;11.77;;;;;;;3.65;98.12;98559.69;12212381;19;20011;-83
2022/12/09 16:18:21;;;;;;;21.30;10.55;;;;;;;3.67;97.91;98566.81;12194218;19;20034;-83
2022/12/09 16:22:28;;;;;;;20.25;9.43;;;;;;;3.67;97.58;98567.66;12213909;19;20535;-82
2022/12/09 16:26:33;;;;;;;21.85;10.00;;;;;;;3.63;97.38;98564.56;12193634;19;20513;-83
2022/12/09 16:30:44;;;;;;;21.30;9.80;;;;;;;3.61;97.70;98561.25;12215170;19;20480;-83
2022/12/09 16:34:49;;;;;;;22.42;10.45;;;;;;;3.52;97.90;98568.09;12209575;19;20505;-83
2022/12/09 16:39:06;;;;;;;21.15;9.38;;;;;;;3.47;97.93;98561.69;12193981;19;20017;-82
2022/12/09 16:43:15;;;;;;;16.05;8.45;;;;;;;3.46;98.18;98565.50;12222461;19;20006;-83
2022/12/09 16:47:25;;;;;;;21.05;10.10;;;;;;;3.50;98.41;98572.94;12229495;19;20002;-83
2022/12/09 16:51:50;;;;;;;21.33;8.90;;;;;;;3.55;97.93;98569.53;12249756;19;20071;-85
2022/12/09 16:56:00;;;;;;;15.52;7.72;;;;;;;3.49;98.17;98571.31;12259515;19;20031;-84
2022/12/09 17:00:01;;;;;;;20.63;9.52;;;;;;;3.46;98.34;98577.22;12199069;19;20092;-85
2022/12/09 17:04:12;;;;;;;26.23;11.52;;;;;;;3.34;99.02;98573.66;12222807;19;20070;-83
2022/12/09 17:08:14;;;;;;;24.40;12.95;;;;;;;3.31;99.18;98576.84;12250705;19;20018;-85
2022/12/09 17:12:15;;;;;;;19.52;9.82;;;;;;;3.14;100.00;98580.19;12207236;19;20002;-85
2022/12/09 17:16:20;;;;;;;18.95;10.02;;;;;;;3.13;100.00;98573.13;12220694;19;20025;-83
2022/12/09 17:20:22;;;;;;;19.45;10.18;;;;;;;3.11;99.97;98577.13;12224649;19;20464;-84
2022/12/09 17:24:24;;;;;;;21.65;9.60;;;;;;;3.09;100.00;98569.16;12199582;19;20381;-84
2022/12/09 17:28:27;;;;;;;17.42;8.00;;;;;;;3.01;100.00;98569.53;12217189;19;20046;-84
2022/12/09 17:32:31;;;;;;;14.88;7.75;;;;;;;3.02;100.00;98576.63;12197282;19;20012;-84
2022/12/09 17:36:33;;;;;;;17.80;7.85;;;;;;;3.05;100.00;98580.78;12219909;19;20045;-85
2022/12/09 17:40:34;;;;;;;17.67;8.88;;;;;;;3.01;100.00;98580.41;12216801;19;20015;-84
2022/12/09 17:44:37;;;;;;;;;;;;;;;2.97;100.00;98592.78;12195690;19;20014;-83
2022/12/09 17:48:40;;;;;;;16.35;8.48;;;;;;;2.92;100.00;98603.56;12220251;19;19971;-83
2022/12/09 17:52:42;;;;;;;14.38;7.65;;;;;;;2.92;100.00;98601.66;12214734;19;20104;-84
2022/12/09 17:56:45;;;;;;;17.50;10.05;;;;;;;2.96;100.00;98602.84;12194346;19;20003;-84
2022/12/09 18:00:48;;;;;;;19.58;9.20;;;;;;;2.88;100.00;98602.34;12220127;19;20010;-83
2022/12/09 18:04:50;;;;;;;17.85;8.25;;;;;;;2.90;100.00;98608.41;12219198;19;20042;-84
2022/12/09 18:08:53;;;;;;;17.40;8.75;;;;;;;2.96;100.00;98615.63;12210468;19;20018;-86
2022/12/09 18:12:55;;;;;;;21.65;11.32;;;;;;;2.94;100.00;98613.16;12229339;19;20021;-85
2022/12/09 18:16:57;;;;;;;24.90;11.05;;;;;;;2.87;100.00;98612.41;12236709;19;20026;-84
2022/12/09 18:20:59;;;;;;;20.77;9.73;;;;;;;2.96;100.00;98621.06;12204070;19;20022;-84
2022/12/09 18:25:01;;;;;;;17.77;9.67;;;;;;;2.91;100.00;98619.03;12220572;19;20010;-82
2022/12/09 18:29:03;;;;;;;21.52;10.23;;;;;;;2.83;100.00;98621.28;12222200;19;20066;-85
2022/12/09 18:33:04;;;;;;;22.73;9.82;;;;;;;2.85;100.00;98627.28;12198508;19;20777;-85
2022/12/09 18:37:08;;;;;;;17.48;8.25;;;;;;;2.79;100.00;98618.16;12249525;19;20051;-86
2022/12/09 18:41:18;;;;;;;18.75;8.48;;;;;;;2.73;100.00;98622.59;12257072;19;20017;-84
2022/12/09 18:45:20;;;;;;;16.42;8.68;;;;;;;2.76;100.00;98623.22;12199017;19;20011;-85
2022/12/09 18:49:23;;;;;;;13.65;7.80;;;;;;;2.74;100.00;98626.19;12216771;19;20027;-83
2022/12/09 18:53:26;;;;;;;17.58;7.88;;;;;;;2.78;100.00;98618.41;12225340;19;20086;-85
2022/12/09 18:57:27;;;;;;;16.00;8.23;;;;;;;2.83;100.00;98622.09;12203020;19;20010;-84
2022/12/09 19:01:32;;;;;;;17.48;7.53;;;;;;;2.87;100.00;98630.63;12215279;19;20334;-85
2022/12/09 19:05:36;;;;;;;15.23;7.55;;;;;;;2.83;99.85;98629.44;12201133;19;20026;-85